Time;durP1;ratioP1;P1;durP2;ratioP2;P2;SDS_P1;SDS_P2;PMS_P1;PMS_P2;Temp;Humidity;BMP_temperature;BMP_pressure;BME280_temperature;BME280_humidity;BME280_pressure;Samples;Min_cycle;Max_cycle;Signal;HPM_P1;HPM_P2
2021/11/26 00:18:59;;;;;;;4.05;3.65;;;;;;;;;;4689468;28;20088;-60
2021/11/26 00:21:25;;;;;;;4.25;3.85;;;;;;;;;;4235600;33;20132;-60
2021/11/26 00:23:51;;;;;;;4.82;4.12;;;;;;;;;;4219018;33;20607;-60
2021/11/26 00:26:17;;;;;;;5.72;4.22;;;;;;;;;;4213660;34;20185;-62
2021/11/26 00:28:43;;;;;;;4.40;3.78;;;;;;;;;;4218801;33;20093;-62
2021/11/26 00:31:09;;;;;;;4.93;4.43;;;;;;;;;;4217900;34;20521;-60
2021/11/26 00:33:35;;;;;;;4.65;4.07;;;;;;;;;;4218445;34;20149;-60
2021/11/26 00:36:01;;;;;;;4.62;4.18;;;;;;;;;;4218482;34;20194;-60
2021/11/26 00:38:27;;;;;;;4.68;4.18;;;;;;;;;;4218625;34;20188;-59
2021/11/26 00:40:53;;;;;;;4.57;4.10;;;;;;;;;;4218460;34;20465;-60
2021/11/26 00:43:19;;;;;;;5.15;4.15;;;;;;;;;;4218518;34;20107;-59
2021/11/26 00:45:45;;;;;;;3.75;3.35;;;;;;;;;;4218488;34;20109;-60
2021/11/26 00:48:11;;;;;;;5.12;3.92;;;;;;;;;;4218449;34;20517;-59
2021/11/26 00:50:37;;;;;;;5.22;3.85;;;;;;;;;;4218452;34;20446;-59
2021/11/26 00:53:04;;;;;;;4.60;3.80;;;;;;;;;;4218651;34;20129;-59
2021/11/26 00:55:31;;;;;;;4.50;3.80;;;;;;;;;;4218316;34;20193;-59
2021/11/26 00:57:57;;;;;;;4.43;3.90;;;;;;;;;;4218291;34;20217;-59
2021/11/26 01:00:24;;;;;;;4.50;3.65;;;;;;;;;;4218377;34;20132;-59
2021/11/26 01:02:50;;;;;;;4.80;3.70;;;;;;;;;;4218207;34;20168;-59
2021/11/26 01:05:16;;;;;;;4.15;3.75;;;;;;;;;;4218092;34;20198;-60
2021/11/26 01:07:43;;;;;;;4.22;3.83;;;;;;;;;;4218129;33;20209;-60
2021/11/26 01:10:16;;;;;;;5.35;4.00;;;;;;;;;;4217949;34;20169;-60
2021/11/26 01:12:43;;;;;;;5.20;4.43;;;;;;;;;;4218313;34;20113;-60
2021/11/26 01:15:10;;;;;;;4.97;3.97;;;;;;;;;;4218176;34;20533;-60
2021/11/26 01:17:37;;;;;;;6.82;4.37;;;;;;;;;;4218285;34;20129;-60
2021/11/26 01:20:07;;;;;;;5.18;4.15;;;;;;;;;;4218207;34;20474;-59
2021/11/26 01:22:33;;;;;;;4.35;3.72;;;;;;;;;;4218109;34;20616;-63
2021/11/26 01:24:59;;;;;;;4.37;3.90;;;;;;;;;;4218123;34;20524;-62
2021/11/26 01:27:25;;;;;;;4.47;4.00;;;;;;;;;;4218198;34;20561;-63
2021/11/26 01:29:51;;;;;;;4.47;3.75;;;;;;;;;;4218002;34;20506;-63
2021/11/26 01:32:17;;;;;;;4.40;3.97;;;;;;;;;;4218238;34;20196;-63
2021/11/26 01:34:43;;;;;;;4.70;4.03;;;;;;;;;;4218055;34;20173;-62
2021/11/26 01:37:09;;;;;;;5.07;3.72;;;;;;;;;;4217924;34;20106;-62
2021/11/26 01:39:35;;;;;;;5.47;3.97;;;;;;;;;;4218194;34;20181;-62
2021/11/26 01:42:02;;;;;;;4.80;4.10;;;;;;;;;;4217995;34;20513;-62
2021/11/26 01:44:28;;;;;;;4.45;4.05;;;;;;;;;;4218373;34;20109;-63
2021/11/26 01:46:54;;;;;;;4.22;3.83;;;;;;;;;;4217904;34;20099;-62
2021/11/26 01:49:20;;;;;;;4.68;4.05;;;;;;;;;;4218081;34;20184;-63
2021/11/26 01:51:47;;;;;;;5.25;4.05;;;;;;;;;;4217867;34;20520;-62
2021/11/26 01:54:13;;;;;;;5.18;4.35;;;;;;;;;;4217924;34;20341;-62
2021/11/26 01:56:39;;;;;;;4.78;4.18;;;;;;;;;;4217909;34;20102;-62
2021/11/26 01:59:06;;;;;;;4.20;3.80;;;;;;;;;;4217724;34;20189;-63
2021/11/26 02:01:33;;;;;;;4.30;3.83;;;;;;;;;;4217761;34;20517;-63
2021/11/26 02:03:59;;;;;;;4.00;3.60;;;;;;;;;;4217738;34;20197;-62
2021/11/26 02:06:25;;;;;;;5.97;4.25;;;;;;;;;;4217814;34;20112;-62
2021/11/26 02:08:51;;;;;;;5.40;4.07;;;;;;;;;;4217681;33;20093;-63
2021/11/26 02:11:17;;;;;;;4.28;3.87;;;;;;;;;;4204918;34;20501;-62
2021/11/26 02:13:43;;;;;;;5.22;4.15;;;;;;;;;;4218035;33;20086;-63
2021/11/26 02:16:10;;;;;;;4.20;3.80;;;;;;;;;;4217584;34;20145;-63
2021/11/26 02:18:36;;;;;;;5.53;4.32;;;;;;;;;;4217828;33;20118;-66
2021/11/26 02:21:03;;;;;;;3.92;3.28;;;;;;;;;;4218320;34;20448;-64
2021/11/26 02:23:29;;;;;;;3.97;3.58;;;;;;;;;;4219804;33;20125;-65
2021/11/26 02:25:55;;;;;;;4.10;3.70;;;;;;;;;;4219667;34;20768;-63
2021/11/26 02:28:21;;;;;;;4.43;4.03;;;;;;;;;;4219844;33;20193;-62
2021/11/26 02:30:47;;;;;;;4.72;3.30;;;;;;;;;;4219516;34;20097;-62
2021/11/26 02:33:19;;;;;;;4.30;3.65;;;;;;;;;;4219608;34;20129;-63
2021/11/26 02:35:47;;;;;;;4.20;3.80;;;;;;;;;;4219707;34;20101;-65
2021/11/26 02:38:14;;;;;;;4.25;3.80;;;;;;;;;;4219721;34;20538;-63
2021/11/26 02:40:42;;;;;;;5.93;3.90;;;;;;;;;;4219626;34;20145;-63
2021/11/26 02:43:09;;;;;;;5.15;3.80;;;;;;;;;;4219557;34;20102;-63
2021/11/26 02:45:36;;;;;;;5.05;4.30;;;;;;;;;;4219605;34;20093;-63
2021/11/26 02:48:02;;;;;;;4.82;3.62;;;;;;;;;;4219498;34;20129;-63
2021/11/26 02:50:28;;;;;;;4.93;4.30;;;;;;;;;;4219567;34;20103;-63
2021/11/26 02:52:57;;;;;;;4.87;4.18;;;;;;;;;;4219631;34;20110;-63
2021/11/26 02:55:25;;;;;;;5.30;4.57;;;;;;;;;;4219556;34;20121;-64
2021/11/26 02:57:51;;;;;;;4.95;4.47;;;;;;;;;;4219407;34;20530;-62
2021/11/26 03:00:20;;;;;;;6.72;5.00;;;;;;;;;;4219349;34;20565;-63
2021/11/26 03:02:46;;;;;;;5.20;4.70;;;;;;;;;;4219395;34;20137;-63
2021/11/26 03:05:13;;;;;;;5.53;5.03;;;;;;;;;;4219390;34;20105;-61
2021/11/26 03:07:39;;;;;;;7.97;5.85;;;;;;;;;;4219295;34;20108;-63
2021/11/26 03:10:07;;;;;;;8.27;5.68;;;;;;;;;;4219287;34;20124;-62
2021/11/26 03:12:33;;;;;;;6.37;5.78;;;;;;;;;;4219107;34;20118;-63
2021/11/26 03:14:59;;;;;;;6.68;5.97;;;;;;;;;;4219363;34;20108;-62
2021/11/26 03:17:26;;;;;;;7.47;6.78;;;;;;;;;;4206344;34;20643;-62
2021/11/26 03:19:53;;;;;;;7.50;6.78;;;;;;;;;;4219284;34;20204;-63
2021/11/26 03:22:19;;;;;;;9.32;7.18;;;;;;;;;;4219203;34;20137;-63
2021/11/26 03:24:45;;;;;;;7.15;6.45;;;;;;;;;;4206409;34;20114;-63
2021/11/26 03:27:11;;;;;;;8.75;6.85;;;;;;;;;;4219188;34;20110;-66
2021/11/26 03:29:37;;;;;;;7.53;6.72;;;;;;;;;;4219354;34;20127;-67
2021/11/26 03:32:03;;;;;;;7.80;6.75;;;;;;;;;;4218784;34;20506;-64
2021/11/26 03:34:30;;;;;;;8.20;6.78;;;;;;;;;;4218910;34;20130;-63
2021/11/26 03:36:56;;;;;;;8.52;7.68;;;;;;;;;;4219009;34;20117;-70
2021/11/26 03:39:22;;;;;;;8.32;7.43;;;;;;;;;;4219226;34;20469;-63
2021/11/26 03:41:48;;;;;;;9.52;8.45;;;;;;;;;;4219039;34;20101;-60
2021/11/26 03:44:14;;;;;;;8.73;7.82;;;;;;;;;;4219145;34;20132;-60
2021/11/26 03:46:40;;;;;;;9.40;8.13;;;;;;;;;;4219120;34;20465;-59
2021/11/26 03:49:07;;;;;;;8.90;8.00;;;;;;;;;;4218955;34;20139;-59
2021/11/26 03:51:33;;;;;;;9.40;7.87;;;;;;;;;;4219043;34;20133;-59
2021/11/26 03:53:59;;;;;;;10.68;8.02;;;;;;;;;;4218680;34;20120;-59
2021/11/26 03:56:25;;;;;;;8.82;7.97;;;;;;;;;;4219247;34;20113;-59
2021/11/26 03:58:51;;;;;;;9.13;8.23;;;;;;;;;;4218830;34;20124;-59
2021/11/26 04:01:17;;;;;;;9.90;7.97;;;;;;;;;;4218996;34;20552;-59
2021/11/26 04:03:43;;;;;;;10.20;8.07;;;;;;;;;;4218965;34;20131;-59
2021/11/26 04:06:09;;;;;;;9.13;8.15;;;;;;;;;;4219003;34;20594;-59
2021/11/26 04:08:35;;;;;;;9.18;8.27;;;;;;;;;;4218807;34;20108;-59
2021/11/26 04:11:01;;;;;;;10.07;9.00;;;;;;;;;;4218827;34;20101;-59
2021/11/26 04:13:27;;;;;;;9.63;8.63;;;;;;;;;;4218822;34;20124;-58
2021/11/26 04:16:01;;;;;;;10.35;9.20;;;;;;;;;;4218852;34;20224;-60
2021/11/26 04:18:27;;;;;;;10.80;9.70;;;;;;;;;;4218875;34;20113;-59
2021/11/26 04:20:53;;;;;;;8.90;8.00;;;;;;;;;;4218774;34;20085;-59
2021/11/26 04:23:19;;;;;;;10.68;8.50;;;;;;;;;;4218644;34;20135;-59
2021/11/26 04:25:45;;;;;;;9.45;8.55;;;;;;;;;;4218696;34;20120;-60
2021/11/26 04:28:11;;;;;;;11.73;9.15;;;;;;;;;;4218783;34;20128;-59
2021/11/26 04:30:38;;;;;;;9.25;8.35;;;;;;;;;;4218843;34;20125;-59
2021/11/26 04:33:04;;;;;;;12.20;8.82;;;;;;;;;;4218816;34;20556;-59
2021/11/26 04:35:30;;;;;;;10.70;9.10;;;;;;;;;;4218646;34;20110;-59
2021/11/26 04:37:56;;;;;;;8.70;7.80;;;;;;;;;;4218539;34;20196;-59
2021/11/26 04:40:22;;;;;;;9.02;7.85;;;;;;;;;;4218490;34;20205;-59
2021/11/26 04:42:48;;;;;;;8.82;7.90;;;;;;;;;;4217938;34;20120;-59
2021/11/26 04:45:15;;;;;;;9.77;8.77;;;;;;;;;;4205421;34;20133;-59
2021/11/26 04:47:42;;;;;;;10.10;8.73;;;;;;;;;;4218342;34;20524;-59
2021/11/26 04:50:09;;;;;;;10.15;8.25;;;;;;;;;;4202130;34;20133;-59
2021/11/26 04:52:35;;;;;;;8.75;7.30;;;;;;;;;;4217896;34;20117;-59
2021/11/26 04:55:01;;;;;;;10.05;7.87;;;;;;;;;;4217959;34;20209;-59
2021/11/26 04:57:27;;;;;;;8.65;7.80;;;;;;;;;;4218153;34;20182;-60
2021/11/26 04:59:55;;;;;;;8.93;7.95;;;;;;;;;;4204860;34;20106;-59
2021/11/26 05:02:21;;;;;;;9.48;8.48;;;;;;;;;;4218311;34;20214;-59
2021/11/26 05:04:47;;;;;;;8.93;7.78;;;;;;;;;;4217754;34;20101;-59
2021/11/26 05:07:13;;;;;;;8.02;7.12;;;;;;;;;;4217911;34;20104;-59
2021/11/26 05:09:40;;;;;;;8.02;7.22;;;;;;;;;;4217977;34;20128;-59
2021/11/26 05:12:06;;;;;;;8.27;7.47;;;;;;;;;;4217927;34;20120;-60
2021/11/26 05:14:34;;;;;;;8.32;7.35;;;;;;;;;;4217866;33;20216;-60
2021/11/26 05:17:00;;;;;;;7.93;7.12;;;;;;;;;;4218109;34;20181;-60
2021/11/26 05:19:26;;;;;;;8.10;7.30;;;;;;;;;;4218234;33;20529;-59
2021/11/26 05:21:52;;;;;;;8.05;7.25;;;;;;;;;;4218044;34;20192;-60
2021/11/26 05:24:19;;;;;;;9.18;7.70;;;;;;;;;;4217739;33;20120;-60
2021/11/26 05:26:45;;;;;;;7.85;7.05;;;;;;;;;;4218081;34;20129;-59
2021/11/26 05:29:11;;;;;;;8.18;7.32;;;;;;;;;;4218091;33;20117;-60
2021/11/26 05:31:38;;;;;;;8.13;7.32;;;;;;;;;;4218149;34;20113;-60
2021/11/26 05:34:05;;;;;;;8.32;7.60;;;;;;;;;;4217951;34;20109;-60
2021/11/26 05:36:32;;;;;;;7.85;7.10;;;;;;;;;;4218478;34;20384;-60
2021/11/26 05:38:58;;;;;;;8.48;7.57;;;;;;;;;;4217999;34;20482;-60
2021/11/26 05:41:24;;;;;;;11.12;8.38;;;;;;;;;;4218033;34;20136;-60
2021/11/26 05:43:50;;;;;;;10.98;8.30;;;;;;;;;;4218032;34;20136;-60
2021/11/26 05:46:16;;;;;;;8.73;7.82;;;;;;;;;;4217917;34;20112;-60
2021/11/26 05:48:42;;;;;;;8.80;7.90;;;;;;;;;;4217948;34;20102;-60
2021/11/26 05:51:08;;;;;;;8.48;7.53;;;;;;;;;;4218037;34;20228;-59
2021/11/26 05:53:35;;;;;;;10.70;8.23;;;;;;;;;;4217553;34;20133;-60
2021/11/26 05:56:01;;;;;;;8.68;7.82;;;;;;;;;;4206681;34;20129;-60
2021/11/26 05:58:27;;;;;;;8.65;7.72;;;;;;;;;;4219872;34;20117;-60
2021/11/26 06:00:54;;;;;;;8.70;7.05;;;;;;;;;;4219653;34;20175;-59
2021/11/26 06:03:21;;;;;;;8.35;7.55;;;;;;;;;;4215373;33;20527;-59
2021/11/26 06:05:47;;;;;;;10.38;8.50;;;;;;;;;;4206444;34;20534;-59
2021/11/26 06:08:13;;;;;;;8.80;7.65;;;;;;;;;;4219467;33;20605;-59
2021/11/26 06:10:39;;;;;;;9.23;8.15;;;;;;;;;;4219250;34;20097;-59
2021/11/26 06:13:06;;;;;;;9.60;8.60;;;;;;;;;;4219062;33;20548;-59
2021/11/26 06:15:32;;;;;;;8.68;7.87;;;;;;;;;;4219582;34;20170;-59
2021/11/26 06:17:58;;;;;;;8.57;7.30;;;;;;;;;;4219158;33;20106;-59
2021/11/26 06:20:26;;;;;;;8.05;6.78;;;;;;;;;;4219229;34;20599;-59
2021/11/26 06:22:52;;;;;;;9.55;7.62;;;;;;;;;;4219153;34;20517;-59
2021/11/26 06:25:20;;;;;;;7.90;7.10;;;;;;;;;;4206340;34;20116;-58
2021/11/26 06:27:47;;;;;;;11.57;8.40;;;;;;;;;;4219332;34;20136;-59
2021/11/26 06:30:15;;;;;;;7.85;7.05;;;;;;;;;;4219339;33;20128;-59
2021/11/26 06:32:43;;;;;;;9.32;7.50;;;;;;;;;;4219162;34;20110;-59
2021/11/26 06:35:10;;;;;;;8.27;7.18;;;;;;;;;;4219396;33;20102;-59
2021/11/26 06:37:36;;;;;;;8.07;7.28;;;;;;;;;;4219031;34;20137;-59
2021/11/26 06:40:04;;;;;;;8.90;7.85;;;;;;;;;;4219241;33;20102;-59
2021/11/26 06:42:30;;;;;;;8.77;7.95;;;;;;;;;;4219345;34;20109;-59
2021/11/26 06:44:56;;;;;;;8.73;7.53;;;;;;;;;;4219171;33;20102;-59
2021/11/26 06:47:22;;;;;;;8.25;7.45;;;;;;;;;;4218980;34;20136;-60
2021/11/26 06:49:48;;;;;;;7.93;7.10;;;;;;;;;;4219196;33;20606;-59
2021/11/26 06:52:16;;;;;;;7.75;6.95;;;;;;;;;;4218433;34;20117;-59
2021/11/26 06:54:42;;;;;;;8.32;7.45;;;;;;;;;;4218946;33;20109;-59
2021/11/26 06:57:08;;;;;;;8.13;7.30;;;;;;;;;;4218740;34;20114;-60
2021/11/26 06:59:34;;;;;;;11.10;7.62;;;;;;;;;;4219034;33;20087;-59
2021/11/26 07:02:00;;;;;;;6.62;5.57;;;;;;;;;;4219087;34;20129;-59
2021/11/26 07:04:27;;;;;;;8.30;7.45;;;;;;;;;;4219017;33;20144;-58
2021/11/26 07:06:53;;;;;;;7.97;7.18;;;;;;;;;;4218042;34;20113;-59
2021/11/26 07:09:20;;;;;;;8.27;7.07;;;;;;;;;;4205196;34;20110;-59
2021/11/26 07:11:46;;;;;;;9.43;7.18;;;;;;;;;;4205095;34;20210;-60
2021/11/26 07:14:12;;;;;;;9.25;7.62;;;;;;;;;;4218168;33;20109;-60
2021/11/26 07:16:38;;;;;;;8.70;7.37;;;;;;;;;;4218678;34;20202;-60
2021/11/26 07:19:04;;;;;;;9.10;7.75;;;;;;;;;;4218894;33;20117;-60
2021/11/26 07:21:30;;;;;;;10.05;8.13;;;;;;;;;;4218986;34;20538;-60
2021/11/26 07:23:56;;;;;;;9.07;8.15;;;;;;;;;;4218527;33;20201;-60
2021/11/26 07:26:23;;;;;;;8.35;7.43;;;;;;;;;;4218849;34;20117;-59
2021/11/26 07:28:50;;;;;;;8.85;7.95;;;;;;;;;;4218550;33;20216;-63
2021/11/26 07:31:16;;;;;;;9.27;8.27;;;;;;;;;;4218946;34;20097;-63
2021/11/26 07:33:42;;;;;;;8.63;7.53;;;;;;;;;;4218690;33;20538;-64
2021/11/26 07:36:08;;;;;;;8.07;6.80;;;;;;;;;;4218255;34;20120;-64
2021/11/26 07:38:35;;;;;;;9.18;7.40;;;;;;;;;;4218242;33;20180;-64
2021/11/26 07:41:02;;;;;;;7.75;6.95;;;;;;;;;;4218712;34;20121;-64
2021/11/26 07:43:28;;;;;;;9.40;8.27;;;;;;;;;;4205553;34;20117;-64
2021/11/26 07:45:54;;;;;;;9.18;8.27;;;;;;;;;;4205707;34;20131;-64
2021/11/26 07:48:20;;;;;;;10.57;7.70;;;;;;;;;;4218091;33;20254;-62
2021/11/26 07:50:46;;;;;;;8.80;7.62;;;;;;;;;;4218770;34;20098;-64
2021/11/26 07:53:12;;;;;;;9.18;8.27;;;;;;;;;;4217527;33;20754;-64
2021/11/26 07:55:38;;;;;;;8.88;7.30;;;;;;;;;;4217272;34;20478;-64
2021/11/26 07:58:06;;;;;;;11.38;8.02;;;;;;;;;;4218213;33;20145;-64
2021/11/26 08:00:33;;;;;;;10.05;7.00;;;;;;;;;;4218627;34;20125;-65
2021/11/26 08:03:01;;;;;;;9.52;8.40;;;;;;;;;;4205242;33;20113;-64
2021/11/26 08:05:31;;;;;;;8.10;7.30;;;;;;;;;;4218585;34;20141;-64
2021/11/26 08:07:59;;;;;;;8.88;7.20;;;;;;;;;;4217997;33;20129;-64
2021/11/26 08:10:26;;;;;;;8.05;6.87;;;;;;;;;;4217755;34;20565;-64
2021/11/26 08:12:52;;;;;;;8.85;7.90;;;;;;;;;;4218280;34;20117;-64
2021/11/26 08:15:19;;;;;;;9.02;8.13;;;;;;;;;;4218460;33;20124;-62
2021/11/26 08:17:45;;;;;;;10.13;8.35;;;;;;;;;;4217936;34;20560;-62
2021/11/26 08:20:12;;;;;;;8.18;7.30;;;;;;;;;;4218492;33;20176;-61
2021/11/26 08:22:38;;;;;;;8.90;7.10;;;;;;;;;;4217881;34;20106;-62
2021/11/26 08:25:07;;;;;;;8.27;7.47;;;;;;;;;;4218297;33;20140;-61
2021/11/26 08:27:33;;;;;;;11.43;6.95;;;;;;;;;;4218000;34;20181;-62
2021/11/26 08:29:59;;;;;;;6.18;5.40;;;;;;;;;;4205253;34;20157;-61
2021/11/26 08:32:26;;;;;;;8.80;7.80;;;;;;;;;;4218110;34;20140;-62
2021/11/26 08:34:52;;;;;;;10.23;7.72;;;;;;;;;;4218266;33;20123;-61
2021/11/26 08:37:18;;;;;;;9.65;7.90;;;;;;;;;;4218088;34;20592;-62
2021/11/26 08:39:44;;;;;;;9.27;7.60;;;;;;;;;;4218087;33;20106;-61
2021/11/26 08:42:10;;;;;;;7.72;6.93;;;;;;;;;;4205226;34;20101;-61
2021/11/26 08:44:36;;;;;;;8.98;8.07;;;;;;;;;;4218241;33;20518;-62
2021/11/26 08:47:03;;;;;;;9.45;7.68;;;;;;;;;;4218108;34;20203;-62
2021/11/26 08:49:29;;;;;;;8.75;7.50;;;;;;;;;;4217790;33;20121;-61
2021/11/26 08:51:56;;;;;;;9.20;8.35;;;;;;;;;;4217672;34;20109;-61
2021/11/26 08:54:25;;;;;;;10.95;7.80;;;;;;;;;;4216968;33;20214;-60
2021/11/26 08:56:54;;;;;;;10.73;8.13;;;;;;;;;;4218443;34;20209;-62
2021/11/26 08:59:20;;;;;;;8.43;7.53;;;;;;;;;;4217970;33;20104;-62
2021/11/26 09:01:48;;;;;;;9.65;8.00;;;;;;;;;;4218052;33;20196;-62
2021/11/26 09:04:14;;;;;;;8.88;7.07;;;;;;;;;;4205451;33;20104;-63
2021/11/26 09:06:40;;;;;;;9.57;7.78;;;;;;;;;;4204369;34;20120;-62
2021/11/26 09:09:06;;;;;;;12.07;7.47;;;;;;;;;;4203798;34;20117;-62
2021/11/26 09:11:32;;;;;;;9.07;6.82;;;;;;;;;;4215344;34;20090;-63
2021/11/26 09:14:00;;;;;;;11.43;8.20;;;;;;;;;;4217651;33;20141;-61
2021/11/26 09:16:27;;;;;;;8.05;7.28;;;;;;;;;;4218377;34;20117;-61
2021/11/26 09:18:53;;;;;;;9.68;8.07;;;;;;;;;;4217812;33;20129;-61
2021/11/26 09:21:19;;;;;;;10.13;7.45;;;;;;;;;;4218089;34;20128;-62
2021/11/26 09:23:47;;;;;;;10.90;8.45;;;;;;;;;;4218007;33;20529;-61
2021/11/26 09:26:13;;;;;;;9.90;7.62;;;;;;;;;;4217805;34;20185;-63
2021/11/26 09:28:39;;;;;;;12.90;9.07;;;;;;;;;;4217725;33;20224;-62
2021/11/26 09:31:05;;;;;;;12.82;8.23;;;;;;;;;;4217401;34;20589;-62
2021/11/26 09:33:35;;;;;;;10.55;7.50;;;;;;;;;;4209218;33;20121;-61
2021/11/26 09:36:08;;;;;;;9.40;7.68;;;;;;;;;;4203751;34;20163;-62
2021/11/26 09:38:36;;;;;;;9.10;7.55;;;;;;;;;;4203664;34;20165;-61
2021/11/26 09:41:04;;;;;;;9.10;7.95;;;;;;;;;;4203328;34;20119;-60
2021/11/26 09:43:30;;;;;;;9.05;7.32;;;;;;;;;;4203190;34;20118;-62
2021/11/26 09:45:57;;;;;;;10.15;7.65;;;;;;;;;;4202488;34;20200;-61
2021/11/26 09:48:23;;;;;;;9.25;8.25;;;;;;;;;;4203433;34;20189;-61
2021/11/26 09:50:49;;;;;;;9.68;8.73;;;;;;;;;;4203744;34;20555;-62
2021/11/26 09:53:21;;;;;;;8.50;7.25;;;;;;;;;;4213651;33;20205;-62
2021/11/26 09:55:58;;;;;;;8.45;7.37;;;;;;;;;;4217777;34;20462;-62
2021/11/26 09:58:26;;;;;;;10.45;8.73;;;;;;;;;;4204334;34;20470;-62
2021/11/26 10:00:53;;;;;;;9.57;8.32;;;;;;;;;;4217389;34;20097;-62
2021/11/26 10:03:22;;;;;;;8.48;7.15;;;;;;;;;;4216176;33;20141;-62
2021/11/26 10:05:49;;;;;;;9.93;7.32;;;;;;;;;;4217333;34;20097;-62
2021/11/26 10:08:24;;;;;;;10.95;9.02;;;;;;;;;;4217361;34;20143;-62
2021/11/26 10:10:58;;;;;;;9.63;8.63;;;;;;;;;;4217265;34;20112;-62
2021/11/26 10:13:24;;;;;;;8.60;7.65;;;;;;;;;;4217382;33;20136;-63
2021/11/26 10:15:51;;;;;;;9.73;8.45;;;;;;;;;;4217358;34;20128;-63
2021/11/26 10:18:23;;;;;;;11.20;8.65;;;;;;;;;;4217221;33;20098;-60
2021/11/26 10:21:05;;;;;;;9.82;8.43;;;;;;;;;;4217074;34;20510;-61
2021/11/26 10:23:34;;;;;;;11.12;8.43;;;;;;;;;;4217327;33;20508;-62
2021/11/26 10:26:14;;;;;;;8.90;7.80;;;;;;;;;;4217274;34;20117;-67
2021/11/26 10:28:41;;;;;;;10.45;8.10;;;;;;;;;;4217189;33;20096;-60
2021/11/26 10:31:07;;;;;;;11.27;8.45;;;;;;;;;;4216751;34;20573;-61
2021/11/26 10:33:34;;;;;;;9.50;7.72;;;;;;;;;;4204122;34;20113;-61
2021/11/26 10:36:02;;;;;;;10.60;8.20;;;;;;;;;;4216870;34;20167;-61
2021/11/26 10:38:31;;;;;;;9.43;7.78;;;;;;;;;;4215062;33;20441;-61
2021/11/26 10:41:02;;;;;;;8.82;8.02;;;;;;;;;;4215446;34;20125;-61
2021/11/26 10:43:43;;;;;;;9.65;8.18;;;;;;;;;;4205016;34;20093;-61
2021/11/26 10:49:37;;;;;;;8.68;7.62;;;;;;;;;;4217801;33;20117;-61
2021/11/26 10:57:42;;;;;;;11.05;8.65;;;;;;;;;;4219136;34;20299;-61
2021/11/26 11:00:16;;;;;;;9.93;7.65;;;;;;;;;;4217004;33;20129;-61
2021/11/26 11:02:47;;;;;;;12.43;8.05;;;;;;;;;;4216831;34;20114;-60
2021/11/26 11:05:32;;;;;;;10.45;9.35;;;;;;;;;;4217261;33;20129;-61
2021/11/26 11:08:00;;;;;;;12.88;9.60;;;;;;;;;;4217963;33;20094;-60
2021/11/26 11:10:36;;;;;;;10.23;8.23;;;;;;;;;;4217983;33;20108;-62
2021/11/26 11:13:26;;;;;;;9.20;8.23;;;;;;;;;;4213066;33;20140;-62
2021/11/26 11:15:53;;;;;;;9.70;8.70;;;;;;;;;;4205260;34;20605;-61
2021/11/26 11:18:19;;;;;;;9.15;8.10;;;;;;;;;;4205072;34;20114;-62
2021/11/26 11:20:45;;;;;;;10.60;8.45;;;;;;;;;;4204986;34;20533;-62
2021/11/26 11:23:14;;;;;;;10.80;8.45;;;;;;;;;;4192152;34;20110;-62
2021/11/26 11:25:41;;;;;;;10.60;9.55;;;;;;;;;;4205424;34;20117;-62
2021/11/26 11:28:10;;;;;;;10.85;8.30;;;;;;;;;;4204671;34;20545;-61
2021/11/26 11:30:37;;;;;;;11.55;9.02;;;;;;;;;;4207716;34;20125;-62
2021/11/26 11:33:04;;;;;;;10.65;9.05;;;;;;;;;;4218633;33;20136;-62
2021/11/26 11:35:31;;;;;;;10.05;8.88;;;;;;;;;;4218801;34;20098;-61
2021/11/26 11:38:00;;;;;;;10.13;8.13;;;;;;;;;;4218716;33;20133;-62
2021/11/26 11:40:32;;;;;;;9.95;8.90;;;;;;;;;;4218835;34;20192;-61
2021/11/26 11:43:19;;;;;;;12.13;8.63;;;;;;;;;;4218746;33;20113;-62
2021/11/26 11:46:13;;;;;;;10.90;9.50;;;;;;;;;;4218851;34;20113;-61
2021/11/26 11:48:50;;;;;;;12.02;9.23;;;;;;;;;;4217819;34;20121;-64
2021/11/26 11:51:25;;;;;;;10.05;8.95;;;;;;;;;;4218590;34;20201;-63
2021/11/26 11:54:06;;;;;;;9.45;8.45;;;;;;;;;;4217508;34;20101;-61
2021/11/26 11:56:45;;;;;;;10.32;9.07;;;;;;;;;;4218643;34;20118;-62
2021/11/26 11:59:30;;;;;;;9.63;8.63;;;;;;;;;;4218382;33;20209;-62
2021/11/26 12:01:56;;;;;;;10.20;9.10;;;;;;;;;;4218423;34;20107;-62
2021/11/26 12:04:22;;;;;;;11.80;9.05;;;;;;;;;;4215790;33;20209;-62
2021/11/26 12:06:50;;;;;;;10.32;9.15;;;;;;;;;;4218447;34;20104;-62
2021/11/26 12:09:27;;;;;;;9.35;7.80;;;;;;;;;;4218367;33;20101;-64
2021/11/26 12:12:03;;;;;;;9.23;8.23;;;;;;;;;;4218503;34;20128;-63
2021/11/26 12:14:29;;;;;;;10.10;8.82;;;;;;;;;;4218488;33;20105;-63
2021/11/26 12:17:15;;;;;;;10.52;9.43;;;;;;;;;;4218733;34;20117;-63
2021/11/26 12:19:42;;;;;;;10.40;8.40;;;;;;;;;;4218513;33;20115;-69
2021/11/26 12:22:17;;;;;;;9.18;7.32;;;;;;;;;;4218413;34;20555;-63
2021/11/26 12:24:47;;;;;;;9.82;8.82;;;;;;;;;;4218322;33;20090;-65
2021/11/26 12:27:25;;;;;;;9.38;8.43;;;;;;;;;;4218074;34;20093;-64
2021/11/26 12:29:52;;;;;;;11.57;8.63;;;;;;;;;;4218340;34;20177;-65
2021/11/26 12:32:23;;;;;;;7.55;6.75;;;;;;;;;;4218075;34;20100;-65
2021/11/26 12:34:51;;;;;;;10.20;8.38;;;;;;;;;;4218152;34;20197;-65
2021/11/26 12:37:24;;;;;;;9.88;8.20;;;;;;;;;;4218327;34;20117;-64
2021/11/26 12:39:52;;;;;;;8.85;7.60;;;;;;;;;;4218041;33;20208;-64
2021/11/26 12:42:19;;;;;;;9.85;7.87;;;;;;;;;;4218009;34;20152;-64
2021/11/26 12:45:08;;;;;;;9.57;7.60;;;;;;;;;;4217955;33;20121;-63
2021/11/26 12:47:46;;;;;;;11.82;8.48;;;;;;;;;;4218409;34;20278;-65
2021/11/26 12:53:10;;;;;;;9.00;7.65;;;;;;;;;;4218302;33;20208;-62
2021/11/26 12:55:38;;;;;;;8.43;7.53;;;;;;;;;;4218252;34;20109;-62
2021/11/26 12:58:05;;;;;;;10.80;7.78;;;;;;;;;;4205300;33;20236;-62
2021/11/26 13:00:32;;;;;;;8.98;8.00;;;;;;;;;;4218313;34;20112;-62
2021/11/26 13:03:06;;;;;;;8.50;6.93;;;;;;;;;;4218284;33;20606;-61
2021/11/26 13:05:33;;;;;;;8.65;7.72;;;;;;;;;;4217807;34;20530;-61
2021/11/26 13:07:59;;;;;;;8.82;7.60;;;;;;;;;;4215285;33;20133;-62
2021/11/26 13:10:26;;;;;;;8.55;7.43;;;;;;;;;;4217979;34;20549;-61
2021/11/26 13:12:55;;;;;;;8.25;7.12;;;;;;;;;;4217796;34;20581;-61
2021/11/26 13:15:28;;;;;;;9.25;8.27;;;;;;;;;;4217986;34;20097;-61
2021/11/26 13:17:57;;;;;;;8.68;6.62;;;;;;;;;;4218063;33;20106;-60
2021/11/26 13:20:32;;;;;;;7.97;6.40;;;;;;;;;;4217988;34;20200;-60
2021/11/26 13:22:59;;;;;;;9.73;8.73;;;;;;;;;;4217918;33;20701;-61
2021/11/26 13:25:36;;;;;;;8.68;7.78;;;;;;;;;;4217969;34;20109;-60
2021/11/26 13:28:13;;;;;;;10.18;8.55;;;;;;;;;;4218267;33;20524;-62
2021/11/26 13:30:42;;;;;;;9.77;7.62;;;;;;;;;;4218113;34;20104;-61
2021/11/26 13:33:10;;;;;;;9.43;7.80;;;;;;;;;;4218058;34;20101;-61
2021/11/26 13:35:39;;;;;;;11.07;8.45;;;;;;;;;;4218366;34;20114;-60
2021/11/26 13:38:10;;;;;;;10.13;8.20;;;;;;;;;;4218161;34;20153;-61
2021/11/26 13:40:47;;;;;;;9.20;8.20;;;;;;;;;;4218062;34;20095;-59
2021/11/26 13:43:28;;;;;;;10.05;8.27;;;;;;;;;;4218225;34;20607;-59
2021/11/26 13:46:06;;;;;;;9.77;8.77;;;;;;;;;;4217982;34;20136;-58
2021/11/26 13:48:40;;;;;;;11.23;8.80;;;;;;;;;;4218284;34;20102;-59
2021/11/26 13:51:15;;;;;;;10.00;8.73;;;;;;;;;;4217987;34;20543;-59
2021/11/26 13:53:47;;;;;;;10.40;8.73;;;;;;;;;;4201386;34;20221;-59
2021/11/26 13:56:13;;;;;;;10.13;8.88;;;;;;;;;;4217953;34;20194;-59
2021/11/26 13:58:53;;;;;;;10.13;8.50;;;;;;;;;;4217931;33;20137;-59
2021/11/26 14:01:29;;;;;;;9.27;8.10;;;;;;;;;;4217860;34;20131;-59
2021/11/26 14:04:01;;;;;;;8.25;6.80;;;;;;;;;;4218001;33;20207;-58
2021/11/26 14:06:27;;;;;;;9.32;8.23;;;;;;;;;;4217739;34;20260;-59
2021/11/26 14:08:58;;;;;;;11.85;8.80;;;;;;;;;;4217834;33;20140;-58
2021/11/26 14:11:42;;;;;;;11.10;10.00;;;;;;;;;;4217750;34;20105;-59
2021/11/26 14:14:10;;;;;;;10.27;8.48;;;;;;;;;;4217522;33;20527;-60
2021/11/26 14:16:56;;;;;;;10.15;9.05;;;;;;;;;;4219034;34;20121;-59
2021/11/26 14:19:43;;;;;;;10.18;8.15;;;;;;;;;;4220138;33;20213;-60
2021/11/26 14:22:14;;;;;;;11.60;8.10;;;;;;;;;;4219940;34;20149;-59
2021/11/26 14:24:42;;;;;;;11.18;8.85;;;;;;;;;;4219723;33;20125;-59
2021/11/26 14:27:10;;;;;;;10.68;8.60;;;;;;;;;;4219686;34;20124;-59
2021/11/26 14:29:50;;;;;;;9.77;8.77;;;;;;;;;;4219739;33;20101;-59
2021/11/26 14:32:17;;;;;;;11.43;8.70;;;;;;;;;;4206711;34;20125;-58
2021/11/26 14:34:44;;;;;;;12.63;8.75;;;;;;;;;;4219876;34;20105;-58
2021/11/26 14:37:11;;;;;;;10.38;6.87;;;;;;;;;;4219764;34;20723;-59
2021/11/26 14:39:37;;;;;;;11.40;8.48;;;;;;;;;;4219778;34;20121;-61
2021/11/26 14:42:07;;;;;;;8.65;7.20;;;;;;;;;;4219660;34;20106;-59
2021/11/26 14:44:55;;;;;;;10.27;7.40;;;;;;;;;;4216457;33;20521;-59
2021/11/26 14:47:36;;;;;;;10.80;8.82;;;;;;;;;;4219834;34;20196;-60
2021/11/26 14:50:14;;;;;;;9.50;8.02;;;;;;;;;;4206013;34;20206;-59
2021/11/26 14:52:40;;;;;;;9.57;7.25;;;;;;;;;;4212173;34;20255;-59
2021/11/26 14:55:06;;;;;;;9.77;8.63;;;;;;;;;;4214451;34;20133;-59
2021/11/26 14:57:32;;;;;;;9.40;8.32;;;;;;;;;;4219372;34;20114;-59
2021/11/26 14:59:58;;;;;;;9.10;8.05;;;;;;;;;;4206446;34;20110;-59
2021/11/26 15:02:26;;;;;;;9.00;8.07;;;;;;;;;;4219181;34;20157;-60
2021/11/26 15:04:52;;;;;;;8.85;6.70;;;;;;;;;;4194806;34;20213;-60
2021/11/26 15:07:20;;;;;;;9.88;8.07;;;;;;;;;;4219468;34;20105;-60
2021/11/26 15:09:47;;;;;;;9.35;8.07;;;;;;;;;;4219193;33;20097;-61
2021/11/26 15:12:14;;;;;;;8.73;7.20;;;;;;;;;;4219265;34;20552;-61
2021/11/26 15:14:40;;;;;;;8.90;8.00;;;;;;;;;;4218865;33;20113;-59
2021/11/26 15:17:07;;;;;;;9.32;8.38;;;;;;;;;;4219170;34;20109;-60